EDDM Airport Information

Runway Information
Runway 08L Length 13123 ft width 197 ft
Elevation 1467 ft Threshold 0 ft Heading 83
Runway 26R Length 13123 ft Width 197 ft
Elevation 1449 ft Threshold 0 ft Heading 263
Runway 08R Length 13123 ft width 197 ft
Elevation 1486 ft Threshold 0 ft Heading 83
Runway 26L Length 13123 ft Width 197 ft
Elevation 1470 ft Threshold 0 ft Heading 263
Airport Frequencies
Type ACC Name RADAR Frequency 123.9 MHZ
Type ARR Name ARR Frequency 120.775 MHZ
Type ATIS Name ATIS Frequency 123.125 MHZ
Type CLD Name CLNC DEL Frequency 121.725 MHZ
Type DIR Name DIRECTOR Frequency 118.825 MHZ
Type GND Name GND Frequency 119.4 MHZ
Type INFO Name INFO Frequency 120.65 MHZ
Type RDR Name LCL RADAR Frequency 131.225 MHZ
Type RMP Name Apron 2 Frequency 121.7 MHZ
Type RMP Name Apron 1 Frequency 121.775 MHZ
Type RMP Name Aron 3 Frequency 121.925 MHZ
Type TWR Name TWR Frequency 118.7 MHZ
Airport Navaids
Type DME Name Munchen Frequency 116000 KHZ
Type DME Name Munchen Frequency 108600 KHZ
Type NDB Name Munchen Frequency 369 KHZ
Type NDB Name Munchen Frequency 338 KHZ
Type NDB Name Munchen Frequency 358 KHZ
Type NDB Name Munchen Frequency 400 KHZ
Type VOR-DME Name Munchen Frequency 112300 KHZ
Airport Weather Information & NOTAM
ADDS - METARS form results

(0957 UTC 23 July 2018)
 
METAR text: EDDM 230950Z 26004KT 210V360 9999 SCT012 BKN098 21/17 Q1018 NOSIG
Conditions at: EDDM (MUNICH-FLUGHAFEN, DE) observed 0950 UTC 23 July 2018
Temperature: 21.0°C (70°F)
Dewpoint: 17.0°C (63°F) [RH = 78%]
Pressure (altimeter): 30.06 inches Hg (1018.0 mb)
Winds: from the W (260 degrees) at 5 MPH (4 knots; 2.1 m/s)
Visibility: 6 or more miles (10+ km)
Ceiling: 9800 feet AGL
Clouds: scattered clouds at 1200 feet AGL
broken clouds at 9800 feet AGL
Weather: no significant weather observed at this time

METAR text: EDDM 230920Z 27004KT 220V320 8000 SCT009 SCT012 20/17 Q1018 NOSIG
Conditions at: EDDM (MUNICH-FLUGHAFEN, DE) observed 0920 UTC 23 July 2018
Temperature: 20.0°C (68°F)
Dewpoint: 17.0°C (63°F) [RH = 83%]
Pressure (altimeter): 30.06 inches Hg (1018.0 mb)
Winds: from the W (270 degrees) at 5 MPH (4 knots; 2.1 m/s)
Visibility: 5 miles (8 km)
Ceiling: at least 12,000 feet AGL
Clouds: scattered clouds at 900 feet AGL
scattered clouds at 1200 feet AGL
Weather: no significant weather observed at this time